Impacts METAR Board
IDs:

KEDC - Austin/Executive Arp, TX, US

Updated at: 2300 UTC 18 Oct 2019
Potential Impact None Slight Moderate High
Time 18/11Z 18/12Z 18/13Z 18/14Z 18/15Z 18/16Z 18/17Z 18/18Z 18/19Z 18/20Z 18/21Z 18/22Z 18/23Z
Temp50 50 48 55 61 66 72 75 77 81 81 81 81
Dewpt45 45 45 48 50 48 43 39 46 48 48 50 50
Altim29.90 29.91 29.90 29.91 29.92 29.91 29.88 29.85 29.81 29.78 29.75 29.74 29.73
VIS10 10 10 10 10 10 10 10 10 10 10 10 10
CIG-- -- -- -- -- -- -- -- -- -- -- -- --
CoverCLRCLRCLRCLRCLRCLRCLRCLRCLRCLRCLRCLRCLR
FltCatVFRVFRVFRVFRVFRVFRVFRVFRVFRVFRVFRVFRVFR
WX--------------------------
WDir000509015090001500140130
WSpd0 0 0 4 3 3 4 0 0 6 0 8 9
WGst-- -- -- -- -- -- -- -- -- -- -- -- --
Raw hourly METARs
KEDC 181055Z AUTO 00000KT 10SM CLR 10/07 A2990 RMK AO2
KEDC 181155Z AUTO 00000KT 10SM CLR 10/07 A2991 RMK AO2
KEDC 181255Z AUTO 00000KT 10SM CLR 09/07 A2990 RMK AO2
KEDC 181355Z AUTO 05004KT 10SM CLR 13/09 A2991 RMK AO2
KEDC 181455Z AUTO 09003KT 10SM CLR 16/10 A2992 RMK AO2
KEDC 181555Z AUTO 15003KT 10SM CLR 19/09 A2991 RMK AO2
KEDC 181655Z AUTO 09004KT 10SM CLR 22/06 A2988 RMK AO2
KEDC 181755Z AUTO 00000KT 10SM CLR 24/04 A2985 RMK AO2
KEDC 181855Z AUTO 00000KT 10SM CLR 25/08 A2981 RMK AO2
KEDC 181955Z AUTO 15006KT 10SM CLR 27/09 A2978 RMK AO2
KEDC 182055Z AUTO 00000KT 10SM CLR 27/09 A2975 RMK AO2
KEDC 182155Z AUTO 14008KT 10SM CLR 27/10 A2974 RMK AO2
KEDC 182255Z AUTO 13009KT 10SM CLR 27/10 A2973 RMK AO2